sensor_id;sensor_type;location;lat;lon;timestamp;P1;durP1;ratioP1;P2;durP2;ratioP2
35576;SDS011;21680;52.400;16.920;2023-05-14T00:02:09;23.10;;;10.50;;
35576;SDS011;21680;52.400;16.920;2023-05-14T00:04:34;23.10;;;10.40;;
35576;SDS011;21680;52.400;16.920;2023-05-14T00:06:59;27.80;;;12.30;;
35576;SDS011;21680;52.400;16.920;2023-05-14T00:09:24;30.60;;;12.30;;
35576;SDS011;21680;52.400;16.920;2023-05-14T00:11:50;28.00;;;11.20;;
35576;SDS011;21680;52.400;16.920;2023-05-14T00:14:17;22.50;;;10.20;;
35576;SDS011;21680;52.400;16.920;2023-05-14T00:16:42;22.40;;;10.90;;
35576;SDS011;21680;52.400;16.920;2023-05-14T00:19:08;27.30;;;11.20;;
35576;SDS011;21680;52.400;16.920;2023-05-14T00:21:33;20.10;;;10.90;;
35576;SDS011;21680;52.400;16.920;2023-05-14T00:23:58;28.10;;;11.50;;
35576;SDS011;21680;52.400;16.920;2023-05-14T00:26:24;25.70;;;10.70;;
35576;SDS011;21680;52.400;16.920;2023-05-14T00:28:49;32.00;;;13.20;;
35576;SDS011;21680;52.400;16.920;2023-05-14T00:31:14;28.60;;;11.70;;
35576;SDS011;21680;52.400;16.920;2023-05-14T00:33:40;33.90;;;11.50;;
35576;SDS011;21680;52.400;16.920;2023-05-14T00:36:06;27.40;;;10.90;;
35576;SDS011;21680;52.400;16.920;2023-05-14T00:38:32;33.70;;;11.70;;
35576;SDS011;21680;52.400;16.920;2023-05-14T00:40:57;25.70;;;11.50;;
35576;SDS011;21680;52.400;16.920;2023-05-14T00:43:22;24.20;;;10.50;;
35576;SDS011;21680;52.400;16.920;2023-05-14T00:45:49;29.50;;;10.10;;
35576;SDS011;21680;52.400;16.920;2023-05-14T00:48:16;30.60;;;11.30;;
35576;SDS011;21680;52.400;16.920;2023-05-14T00:50:43;30.90;;;11.60;;
35576;SDS011;21680;52.400;16.920;2023-05-14T00:53:09;27.30;;;11.30;;
35576;SDS011;21680;52.400;16.920;2023-05-14T00:55:39;28.60;;;11.70;;
35576;SDS011;21680;52.400;16.920;2023-05-14T00:58:06;33.40;;;12.60;;
35576;SDS011;21680;52.400;16.920;2023-05-14T01:00:34;34.70;;;12.10;;
35576;SDS011;21680;52.400;16.920;2023-05-14T01:03:00;32.70;;;12.10;;
35576;SDS011;21680;52.400;16.920;2023-05-14T01:05:28;31.60;;;11.80;;
35576;SDS011;21680;52.400;16.920;2023-05-14T01:10:49;25.50;;;10.80;;
35576;SDS011;21680;52.400;16.920;2023-05-14T01:13:23;23.70;;;12.30;;
35576;SDS011;21680;52.400;16.920;2023-05-14T01:16:09;32.40;;;11.00;;
35576;SDS011;21680;52.400;16.920;2023-05-14T01:18:37;31.60;;;11.60;;
35576;SDS011;21680;52.400;16.920;2023-05-14T01:21:17;25.20;;;11.40;;
35576;SDS011;21680;52.400;16.920;2023-05-14T01:23:44;31.70;;;11.40;;
35576;SDS011;21680;52.400;16.920;2023-05-14T01:26:09;27.00;;;11.60;;
35576;SDS011;21680;52.400;16.920;2023-05-14T01:28:35;30.00;;;11.90;;
35576;SDS011;21680;52.400;16.920;2023-05-14T01:31:05;25.30;;;12.20;;
35576;SDS011;21680;52.400;16.920;2023-05-14T01:33:33;23.50;;;12.20;;
35576;SDS011;21680;52.400;16.920;2023-05-14T01:36:00;25.00;;;12.00;;
35576;SDS011;21680;52.400;16.920;2023-05-14T01:38:27;27.80;;;12.30;;
35576;SDS011;21680;52.400;16.920;2023-05-14T01:40:55;27.10;;;11.50;;
35576;SDS011;21680;52.400;16.920;2023-05-14T01:43:22;27.80;;;11.90;;
35576;SDS011;21680;52.400;16.920;2023-05-14T01:45:48;26.00;;;10.90;;
35576;SDS011;21680;52.400;16.920;2023-05-14T01:48:13;30.30;;;11.70;;
35576;SDS011;21680;52.400;16.920;2023-05-14T01:50:38;26.10;;;11.40;;
35576;SDS011;21680;52.400;16.920;2023-05-14T01:53:04;30.90;;;12.20;;
35576;SDS011;21680;52.400;16.920;2023-05-14T01:55:29;25.80;;;11.30;;
35576;SDS011;21680;52.400;16.920;2023-05-14T01:57:54;23.60;;;10.90;;
35576;SDS011;21680;52.400;16.920;2023-05-14T02:00:22;24.70;;;11.20;;
35576;SDS011;21680;52.400;16.920;2023-05-14T02:02:52;17.90;;;10.50;;
35576;SDS011;21680;52.400;16.920;2023-05-14T02:05:18;18.20;;;10.10;;
35576;SDS011;21680;52.400;16.920;2023-05-14T02:07:43;22.40;;;11.50;;
35576;SDS011;21680;52.400;16.920;2023-05-14T02:10:08;20.20;;;10.10;;
35576;SDS011;21680;52.400;16.920;2023-05-14T02:12:35;24.60;;;11.60;;
35576;SDS011;21680;52.400;16.920;2023-05-14T02:15:01;26.60;;;10.30;;
35576;SDS011;21680;52.400;16.920;2023-05-14T02:17:27;21.60;;;11.20;;
35576;SDS011;21680;52.400;16.920;2023-05-14T02:19:53;21.30;;;11.10;;
35576;SDS011;21680;52.400;16.920;2023-05-14T02:22:18;25.60;;;11.30;;
35576;SDS011;21680;52.400;16.920;2023-05-14T02:24:43;27.40;;;11.20;;
35576;SDS011;21680;52.400;16.920;2023-05-14T02:27:08;22.40;;;11.20;;
35576;SDS011;21680;52.400;16.920;2023-05-14T02:29:37;23.00;;;10.90;;
35576;SDS011;21680;52.400;16.920;2023-05-14T02:32:02;19.20;;;11.70;;
35576;SDS011;21680;52.400;16.920;2023-05-14T02:34:28;24.30;;;11.30;;
35576;SDS011;21680;52.400;16.920;2023-05-14T02:36:53;21.70;;;11.80;;
35576;SDS011;21680;52.400;16.920;2023-05-14T02:39:18;18.20;;;10.40;;
35576;SDS011;21680;52.400;16.920;2023-05-14T02:41:43;22.80;;;11.10;;
35576;SDS011;21680;52.400;16.920;2023-05-14T02:44:09;22.70;;;11.30;;
35576;SDS011;21680;52.400;16.920;2023-05-14T02:46:34;25.10;;;10.90;;
35576;SDS011;21680;52.400;16.920;2023-05-14T02:48:59;22.20;;;11.80;;
35576;SDS011;21680;52.400;16.920;2023-05-14T02:51:25;23.10;;;11.40;;
35576;SDS011;21680;52.400;16.920;2023-05-14T02:53:51;27.90;;;11.70;;
35576;SDS011;21680;52.400;16.920;2023-05-14T02:56:16;24.10;;;11.70;;
35576;SDS011;21680;52.400;16.920;2023-05-14T02:58:42;22.00;;;12.10;;
35576;SDS011;21680;52.400;16.920;2023-05-14T03:01:07;20.60;;;10.80;;
35576;SDS011;21680;52.400;16.920;2023-05-14T03:03:33;23.40;;;12.10;;
35576;SDS011;21680;52.400;16.920;2023-05-14T03:05:59;29.20;;;12.70;;
35576;SDS011;21680;52.400;16.920;2023-05-14T03:08:25;19.90;;;10.00;;
35576;SDS011;21680;52.400;16.920;2023-05-14T03:10:50;20.00;;;11.30;;
35576;SDS011;21680;52.400;16.920;2023-05-14T03:13:16;17.70;;;11.30;;
35576;SDS011;21680;52.400;16.920;2023-05-14T03:15:44;18.90;;;11.40;;
35576;SDS011;21680;52.400;16.920;2023-05-14T03:18:09;20.10;;;11.80;;
35576;SDS011;21680;52.400;16.920;2023-05-14T03:20:34;26.80;;;11.60;;
35576;SDS011;21680;52.400;16.920;2023-05-14T03:22:59;20.60;;;11.60;;
35576;SDS011;21680;52.400;16.920;2023-05-14T03:25:25;23.90;;;11.60;;
35576;SDS011;21680;52.400;16.920;2023-05-14T03:27:50;19.40;;;11.90;;
35576;SDS011;21680;52.400;16.920;2023-05-14T03:30:15;24.50;;;12.30;;
35576;SDS011;21680;52.400;16.920;2023-05-14T03:32:41;24.60;;;11.70;;
35576;SDS011;21680;52.400;16.920;2023-05-14T03:35:07;26.00;;;11.60;;
35576;SDS011;21680;52.400;16.920;2023-05-14T03:37:32;29.90;;;11.30;;
35576;SDS011;21680;52.400;16.920;2023-05-14T03:39:58;25.80;;;11.40;;
35576;SDS011;21680;52.400;16.920;2023-05-14T03:42:23;22.50;;;11.70;;
35576;SDS011;21680;52.400;16.920;2023-05-14T03:44:48;20.90;;;11.20;;
35576;SDS011;21680;52.400;16.920;2023-05-14T03:47:14;22.50;;;11.20;;
35576;SDS011;21680;52.400;16.920;2023-05-14T03:49:39;19.80;;;11.10;;
35576;SDS011;21680;52.400;16.920;2023-05-14T03:52:05;20.50;;;11.60;;
35576;SDS011;21680;52.400;16.920;2023-05-14T03:54:30;23.80;;;12.10;;
35576;SDS011;21680;52.400;16.920;2023-05-14T03:56:56;25.20;;;12.60;;
35576;SDS011;21680;52.400;16.920;2023-05-14T03:59:21;21.50;;;12.00;;
35576;SDS011;21680;52.400;16.920;2023-05-14T04:01:46;22.80;;;11.80;;
35576;SDS011;21680;52.400;16.920;2023-05-14T04:04:11;26.10;;;11.70;;
35576;SDS011;21680;52.400;16.920;2023-05-14T04:06:36;28.20;;;11.70;;
35576;SDS011;21680;52.400;16.920;2023-05-14T04:09:02;20.50;;;10.90;;
35576;SDS011;21680;52.400;16.920;2023-05-14T04:11:27;21.00;;;11.10;;
35576;SDS011;21680;52.400;16.920;2023-05-14T04:13:53;22.60;;;12.10;;
35576;SDS011;21680;52.400;16.920;2023-05-14T04:16:18;21.00;;;11.60;;
35576;SDS011;21680;52.400;16.920;2023-05-14T04:18:43;18.80;;;11.00;;
35576;SDS011;21680;52.400;16.920;2023-05-14T04:21:09;21.70;;;10.70;;
35576;SDS011;21680;52.400;16.920;2023-05-14T04:23:34;19.10;;;11.50;;
35576;SDS011;21680;52.400;16.920;2023-05-14T04:25:59;22.60;;;11.10;;
35576;SDS011;21680;52.400;16.920;2023-05-14T04:28:25;24.70;;;12.00;;
35576;SDS011;21680;52.400;16.920;2023-05-14T04:30:50;20.10;;;11.90;;
35576;SDS011;21680;52.400;16.920;2023-05-14T04:33:15;20.10;;;11.40;;
35576;SDS011;21680;52.400;16.920;2023-05-14T04:35:41;21.10;;;12.10;;
35576;SDS011;21680;52.400;16.920;2023-05-14T04:38:06;28.10;;;12.20;;
35576;SDS011;21680;52.400;16.920;2023-05-14T04:40:31;21.80;;;12.10;;
35576;SDS011;21680;52.400;16.920;2023-05-14T04:42:57;19.50;;;11.70;;
35576;SDS011;21680;52.400;16.920;2023-05-14T04:45:22;25.50;;;11.20;;
35576;SDS011;21680;52.400;16.920;2023-05-14T04:47:48;20.60;;;11.90;;
35576;SDS011;21680;52.400;16.920;2023-05-14T04:50:13;24.60;;;12.20;;
35576;SDS011;21680;52.400;16.920;2023-05-14T04:52:39;27.20;;;12.60;;
35576;SDS011;21680;52.400;16.920;2023-05-14T04:55:04;20.70;;;11.50;;
35576;SDS011;21680;52.400;16.920;2023-05-14T04:57:30;23.30;;;11.30;;
35576;SDS011;21680;52.400;16.920;2023-05-14T04:59:56;23.40;;;12.00;;
35576;SDS011;21680;52.400;16.920;2023-05-14T05:02:21;28.40;;;11.80;;
35576;SDS011;21680;52.400;16.920;2023-05-14T05:04:47;19.50;;;11.70;;
35576;SDS011;21680;52.400;16.920;2023-05-14T05:07:12;28.40;;;12.30;;
35576;SDS011;21680;52.400;16.920;2023-05-14T05:09:38;29.80;;;11.90;;
35576;SDS011;21680;52.400;16.920;2023-05-14T05:12:04;17.70;;;11.30;;
35576;SDS011;21680;52.400;16.920;2023-05-14T05:14:30;24.20;;;11.80;;
35576;SDS011;21680;52.400;16.920;2023-05-14T05:16:55;26.10;;;11.40;;
35576;SDS011;21680;52.400;16.920;2023-05-14T05:19:20;22.50;;;10.70;;
35576;SDS011;21680;52.400;16.920;2023-05-14T05:21:45;25.50;;;12.20;;
35576;SDS011;21680;52.400;16.920;2023-05-14T05:24:11;23.80;;;11.00;;
35576;SDS011;21680;52.400;16.920;2023-05-14T05:26:37;19.00;;;10.80;;
35576;SDS011;21680;52.400;16.920;2023-05-14T05:29:03;27.20;;;11.40;;
35576;SDS011;21680;52.400;16.920;2023-05-14T05:31:29;24.00;;;11.40;;
35576;SDS011;21680;52.400;16.920;2023-05-14T05:33:56;18.10;;;11.20;;
35576;SDS011;21680;52.400;16.920;2023-05-14T05:36:22;20.40;;;11.60;;
35576;SDS011;21680;52.400;16.920;2023-05-14T05:38:48;19.50;;;11.30;;
35576;SDS011;21680;52.400;16.920;2023-05-14T05:41:13;22.90;;;11.60;;
35576;SDS011;21680;52.400;16.920;2023-05-14T05:43:38;21.80;;;10.70;;
35576;SDS011;21680;52.400;16.920;2023-05-14T05:46:04;21.70;;;12.10;;
35576;SDS011;21680;52.400;16.920;2023-05-14T05:48:29;21.30;;;12.00;;
35576;SDS011;21680;52.400;16.920;2023-05-14T05:50:54;21.90;;;12.40;;
35576;SDS011;21680;52.400;16.920;2023-05-14T05:53:19;19.00;;;11.00;;
35576;SDS011;21680;52.400;16.920;2023-05-14T05:55:45;22.30;;;11.10;;
35576;SDS011;21680;52.400;16.920;2023-05-14T05:58:10;24.20;;;11.80;;
35576;SDS011;21680;52.400;16.920;2023-05-14T06:00:36;22.80;;;11.20;;
35576;SDS011;21680;52.400;16.920;2023-05-14T06:03:01;22.20;;;12.00;;
35576;SDS011;21680;52.400;16.920;2023-05-14T06:05:26;18.30;;;10.90;;
35576;SDS011;21680;52.400;16.920;2023-05-14T06:07:52;22.80;;;11.50;;
35576;SDS011;21680;52.400;16.920;2023-05-14T06:10:17;19.10;;;11.40;;
35576;SDS011;21680;52.400;16.920;2023-05-14T06:12:43;19.00;;;11.40;;
35576;SDS011;21680;52.400;16.920;2023-05-14T06:15:09;21.50;;;10.60;;
35576;SDS011;21680;52.400;16.920;2023-05-14T06:17:36;18.90;;;10.50;;
35576;SDS011;21680;52.400;16.920;2023-05-14T06:20:01;28.50;;;11.20;;
35576;SDS011;21680;52.400;16.920;2023-05-14T06:22:27;19.60;;;10.80;;
35576;SDS011;21680;52.400;16.920;2023-05-14T06:24:52;19.40;;;10.60;;
35576;SDS011;21680;52.400;16.920;2023-05-14T06:27:17;18.70;;;10.90;;
35576;SDS011;21680;52.400;16.920;2023-05-14T06:29:42;20.50;;;11.30;;
35576;SDS011;21680;52.400;16.920;2023-05-14T06:32:08;18.20;;;10.60;;
35576;SDS011;21680;52.400;16.920;2023-05-14T06:34:34;20.30;;;11.00;;
35576;SDS011;21680;52.400;16.920;2023-05-14T06:36:59;23.40;;;11.10;;
35576;SDS011;21680;52.400;16.920;2023-05-14T06:39:26;16.40;;;9.80;;
35576;SDS011;21680;52.400;16.920;2023-05-14T06:41:51;17.30;;;9.70;;
35576;SDS011;21680;52.400;16.920;2023-05-14T06:44:18;19.60;;;10.00;;
35576;SDS011;21680;52.400;16.920;2023-05-14T06:46:43;19.50;;;10.50;;
35576;SDS011;21680;52.400;16.920;2023-05-14T06:49:08;16.90;;;10.20;;
35576;SDS011;21680;52.400;16.920;2023-05-14T06:51:33;17.10;;;9.70;;
35576;SDS011;21680;52.400;16.920;2023-05-14T06:54:00;24.20;;;10.80;;
35576;SDS011;21680;52.400;16.920;2023-05-14T06:56:26;20.10;;;10.50;;
35576;SDS011;21680;52.400;16.920;2023-05-14T06:58:51;14.10;;;8.50;;
35576;SDS011;21680;52.400;16.920;2023-05-14T07:01:16;17.20;;;9.10;;
35576;SDS011;21680;52.400;16.920;2023-05-14T07:03:42;15.20;;;8.70;;
35576;SDS011;21680;52.400;16.920;2023-05-14T07:06:07;16.80;;;8.50;;
35576;SDS011;21680;52.400;16.920;2023-05-14T07:08:32;17.90;;;9.30;;
35576;SDS011;21680;52.400;16.920;2023-05-14T07:10:57;17.80;;;8.90;;
35576;SDS011;21680;52.400;16.920;2023-05-14T07:13:23;12.70;;;8.00;;
35576;SDS011;21680;52.400;16.920;2023-05-14T07:15:52;15.60;;;7.90;;
35576;SDS011;21680;52.400;16.920;2023-05-14T07:18:19;15.40;;;7.30;;
35576;SDS011;21680;52.400;16.920;2023-05-14T07:20:45;10.00;;;6.10;;
35576;SDS011;21680;52.400;16.920;2023-05-14T07:23:10;10.00;;;5.60;;
35576;SDS011;21680;52.400;16.920;2023-05-14T07:25:37;10.70;;;5.50;;
35576;SDS011;21680;52.400;16.920;2023-05-14T07:28:02;9.90;;;5.50;;
35576;SDS011;21680;52.400;16.920;2023-05-14T07:30:28;10.30;;;5.50;;
35576;SDS011;21680;52.400;16.920;2023-05-14T07:32:53;9.70;;;5.80;;
35576;SDS011;21680;52.400;16.920;2023-05-14T07:35:18;9.40;;;5.30;;
35576;SDS011;21680;52.400;16.920;2023-05-14T07:37:44;11.50;;;5.80;;
35576;SDS011;21680;52.400;16.920;2023-05-14T07:40:09;8.10;;;4.90;;
35576;SDS011;21680;52.400;16.920;2023-05-14T07:42:35;9.00;;;5.20;;
35576;SDS011;21680;52.400;16.920;2023-05-14T07:45:00;12.40;;;5.20;;
35576;SDS011;21680;52.400;16.920;2023-05-14T07:47:25;11.00;;;5.00;;
35576;SDS011;21680;52.400;16.920;2023-05-14T07:49:54;9.40;;;5.00;;
35576;SDS011;21680;52.400;16.920;2023-05-14T07:52:21;12.20;;;5.10;;
35576;SDS011;21680;52.400;16.920;2023-05-14T07:54:48;12.40;;;5.30;;
35576;SDS011;21680;52.400;16.920;2023-05-14T07:57:15;7.60;;;4.60;;
35576;SDS011;21680;52.400;16.920;2023-05-14T07:59:40;6.00;;;4.60;;
35576;SDS011;21680;52.400;16.920;2023-05-14T08:02:06;9.50;;;4.40;;
35576;SDS011;21680;52.400;16.920;2023-05-14T08:04:34;8.80;;;4.10;;
35576;SDS011;21680;52.400;16.920;2023-05-14T08:07:00;7.90;;;4.60;;
35576;SDS011;21680;52.400;16.920;2023-05-14T08:09:25;9.10;;;5.50;;
35576;SDS011;21680;52.400;16.920;2023-05-14T08:11:51;9.80;;;4.70;;
35576;SDS011;21680;52.400;16.920;2023-05-14T08:14:17;7.70;;;4.70;;
35576;SDS011;21680;52.400;16.920;2023-05-14T08:16:42;12.40;;;5.30;;
35576;SDS011;21680;52.400;16.920;2023-05-14T08:19:08;8.50;;;4.50;;
35576;SDS011;21680;52.400;16.920;2023-05-14T08:21:33;7.30;;;4.60;;
35576;SDS011;21680;52.400;16.920;2023-05-14T08:23:58;9.30;;;4.20;;
35576;SDS011;21680;52.400;16.920;2023-05-14T08:26:23;10.80;;;4.50;;
35576;SDS011;21680;52.400;16.920;2023-05-14T08:28:49;9.60;;;4.30;;
35576;SDS011;21680;52.400;16.920;2023-05-14T08:31:15;10.20;;;4.00;;
35576;SDS011;21680;52.400;16.920;2023-05-14T08:33:40;4.00;;;3.40;;
35576;SDS011;21680;52.400;16.920;2023-05-14T08:36:05;8.80;;;3.30;;
35576;SDS011;21680;52.400;16.920;2023-05-14T08:38:31;5.90;;;3.10;;
35576;SDS011;21680;52.400;16.920;2023-05-14T08:40:57;10.50;;;3.60;;
35576;SDS011;21680;52.400;16.920;2023-05-14T08:43:28;7.00;;;4.20;;
35576;SDS011;21680;52.400;16.920;2023-05-14T08:46:00;7.80;;;3.40;;
35576;SDS011;21680;52.400;16.920;2023-05-14T08:48:31;9.80;;;3.50;;
35576;SDS011;21680;52.400;16.920;2023-05-14T08:50:58;6.90;;;3.50;;
35576;SDS011;21680;52.400;16.920;2023-05-14T08:53:24;7.00;;;3.20;;
35576;SDS011;21680;52.400;16.920;2023-05-14T08:55:50;5.80;;;3.50;;
35576;SDS011;21680;52.400;16.920;2023-05-14T08:58:15;9.90;;;3.50;;
35576;SDS011;21680;52.400;16.920;2023-05-14T09:00:41;7.50;;;3.20;;
35576;SDS011;21680;52.400;16.920;2023-05-14T09:03:07;5.50;;;3.10;;
35576;SDS011;21680;52.400;16.920;2023-05-14T09:05:33;6.70;;;3.70;;
35576;SDS011;21680;52.400;16.920;2023-05-14T09:07:59;9.60;;;3.70;;
35576;SDS011;21680;52.400;16.920;2023-05-14T09:10:25;5.80;;;3.20;;
35576;SDS011;21680;52.400;16.920;2023-05-14T09:12:50;8.50;;;3.30;;
35576;SDS011;21680;52.400;16.920;2023-05-14T09:15:16;6.80;;;3.20;;
35576;SDS011;21680;52.400;16.920;2023-05-14T09:17:42;5.40;;;3.00;;
35576;SDS011;21680;52.400;16.920;2023-05-14T09:20:08;7.70;;;3.50;;
35576;SDS011;21680;52.400;16.920;2023-05-14T09:22:37;9.50;;;3.10;;
35576;SDS011;21680;52.400;16.920;2023-05-14T09:25:04;7.10;;;2.70;;
35576;SDS011;21680;52.400;16.920;2023-05-14T09:27:31;5.00;;;2.90;;
35576;SDS011;21680;52.400;16.920;2023-05-14T09:30:07;4.80;;;3.10;;
35576;SDS011;21680;52.400;16.920;2023-05-14T09:32:41;4.50;;;2.80;;
35576;SDS011;21680;52.400;16.920;2023-05-14T09:35:08;10.80;;;2.80;;
35576;SDS011;21680;52.400;16.920;2023-05-14T09:37:35;8.20;;;3.30;;
35576;SDS011;21680;52.400;16.920;2023-05-14T09:40:07;6.00;;;2.70;;
35576;SDS011;21680;52.400;16.920;2023-05-14T09:42:35;9.90;;;3.30;;
35576;SDS011;21680;52.400;16.920;2023-05-14T09:45:01;11.60;;;3.00;;
35576;SDS011;21680;52.400;16.920;2023-05-14T09:47:28;9.60;;;2.90;;
35576;SDS011;21680;52.400;16.920;2023-05-14T09:49:54;3.70;;;2.60;;
35576;SDS011;21680;52.400;16.920;2023-05-14T09:52:22;4.70;;;3.00;;
35576;SDS011;21680;52.400;16.920;2023-05-14T09:54:51;8.80;;;2.70;;
35576;SDS011;21680;52.400;16.920;2023-05-14T09:57:17;6.00;;;2.80;;
35576;SDS011;21680;52.400;16.920;2023-05-14T09:59:45;5.00;;;2.90;;
35576;SDS011;21680;52.400;16.920;2023-05-14T10:02:57;6.50;;;2.90;;
35576;SDS011;21680;52.400;16.920;2023-05-14T10:05:06;5.60;;;3.20;;
35576;SDS011;21680;52.400;16.920;2023-05-14T10:07:39;4.40;;;2.80;;
35576;SDS011;21680;52.400;16.920;2023-05-14T10:10:14;9.70;;;2.90;;
35576;SDS011;21680;52.400;16.920;2023-05-14T10:12:42;7.20;;;3.20;;
35576;SDS011;21680;52.400;16.920;2023-05-14T10:15:28;7.50;;;2.40;;
35576;SDS011;21680;52.400;16.920;2023-05-14T10:18:18;6.10;;;2.50;;
35576;SDS011;21680;52.400;16.920;2023-05-14T10:20:47;3.60;;;2.20;;
35576;SDS011;21680;52.400;16.920;2023-05-14T10:25:42;4.60;;;2.30;;
35576;SDS011;21680;52.400;16.920;2023-05-14T10:28:08;8.80;;;2.40;;
35576;SDS011;21680;52.400;16.920;2023-05-14T10:30:35;6.80;;;3.00;;
35576;SDS011;21680;52.400;16.920;2023-05-14T10:33:12;8.20;;;2.50;;
35576;SDS011;21680;52.400;16.920;2023-05-14T10:35:50;6.10;;;3.00;;
35576;SDS011;21680;52.400;16.920;2023-05-14T10:38:25;7.50;;;2.70;;
35576;SDS011;21680;52.400;16.920;2023-05-14T10:40:58;7.00;;;2.90;;
35576;SDS011;21680;52.400;16.920;2023-05-14T10:43:26;4.90;;;2.00;;
35576;SDS011;21680;52.400;16.920;2023-05-14T10:45:54;4.30;;;2.50;;
35576;SDS011;21680;52.400;16.920;2023-05-14T10:48:20;4.20;;;2.30;;
35576;SDS011;21680;52.400;16.920;2023-05-14T10:50:49;5.90;;;3.30;;
35576;SDS011;21680;52.400;16.920;2023-05-14T10:53:15;8.70;;;3.20;;
35576;SDS011;21680;52.400;16.920;2023-05-14T10:55:41;6.20;;;2.80;;
35576;SDS011;21680;52.400;16.920;2023-05-14T10:58:09;6.20;;;2.80;;
35576;SDS011;21680;52.400;16.920;2023-05-14T11:00:35;8.40;;;2.90;;
35576;SDS011;21680;52.400;16.920;2023-05-14T11:03:02;5.90;;;2.80;;
35576;SDS011;21680;52.400;16.920;2023-05-14T11:05:29;5.80;;;2.60;;
35576;SDS011;21680;52.400;16.920;2023-05-14T11:07:56;7.60;;;3.20;;
35576;SDS011;21680;52.400;16.920;2023-05-14T11:10:22;6.70;;;3.10;;
35576;SDS011;21680;52.400;16.920;2023-05-14T11:12:49;6.60;;;2.90;;
35576;SDS011;21680;52.400;16.920;2023-05-14T11:15:17;8.60;;;3.00;;
35576;SDS011;21680;52.400;16.920;2023-05-14T11:17:44;4.70;;;3.10;;
35576;SDS011;21680;52.400;16.920;2023-05-14T11:20:11;7.20;;;2.90;;
35576;SDS011;21680;52.400;16.920;2023-05-14T11:22:38;6.20;;;3.20;;
35576;SDS011;21680;52.400;16.920;2023-05-14T11:25:05;6.70;;;2.80;;
35576;SDS011;21680;52.400;16.920;2023-05-14T11:27:32;5.70;;;2.90;;
35576;SDS011;21680;52.400;16.920;2023-05-14T11:29:59;7.60;;;2.90;;
35576;SDS011;21680;52.400;16.920;2023-05-14T11:32:25;3.90;;;2.40;;
35576;SDS011;21680;52.400;16.920;2023-05-14T11:34:54;9.40;;;3.20;;
35576;SDS011;21680;52.400;16.920;2023-05-14T11:37:19;7.30;;;2.90;;
35576;SDS011;21680;52.400;16.920;2023-05-14T11:39:46;9.90;;;3.90;;
35576;SDS011;21680;52.400;16.920;2023-05-14T11:42:13;4.40;;;2.60;;
35576;SDS011;21680;52.400;16.920;2023-05-14T11:44:40;7.80;;;3.00;;
35576;SDS011;21680;52.400;16.920;2023-05-14T11:47:08;15.30;;;2.60;;
35576;SDS011;21680;52.400;16.920;2023-05-14T11:49:34;4.30;;;2.80;;
35576;SDS011;21680;52.400;16.920;2023-05-14T11:52:02;3.60;;;3.00;;
35576;SDS011;21680;52.400;16.920;2023-05-14T11:54:30;3.50;;;2.70;;
35576;SDS011;21680;52.400;16.920;2023-05-14T11:56:57;11.00;;;3.80;;
35576;SDS011;21680;52.400;16.920;2023-05-14T11:59:30;4.70;;;2.90;;
35576;SDS011;21680;52.400;16.920;2023-05-14T12:01:56;6.00;;;3.50;;
35576;SDS011;21680;52.400;16.920;2023-05-14T12:04:22;8.40;;;3.10;;
35576;SDS011;21680;52.400;16.920;2023-05-14T12:06:48;6.10;;;3.00;;
35576;SDS011;21680;52.400;16.920;2023-05-14T12:09:15;9.10;;;3.00;;
35576;SDS011;21680;52.400;16.920;2023-05-14T12:11:44;9.70;;;3.80;;
35576;SDS011;21680;52.400;16.920;2023-05-14T12:14:15;6.90;;;2.60;;
35576;SDS011;21680;52.400;16.920;2023-05-14T12:16:44;8.70;;;3.10;;
35576;SDS011;21680;52.400;16.920;2023-05-14T12:19:11;6.20;;;2.90;;
35576;SDS011;21680;52.400;16.920;2023-05-14T12:21:38;6.30;;;2.70;;
35576;SDS011;21680;52.400;16.920;2023-05-14T12:24:08;7.20;;;2.90;;
35576;SDS011;21680;52.400;16.920;2023-05-14T12:26:35;12.20;;;3.10;;
35576;SDS011;21680;52.400;16.920;2023-05-14T12:29:02;4.90;;;3.10;;
35576;SDS011;21680;52.400;16.920;2023-05-14T12:31:29;10.20;;;2.80;;
35576;SDS011;21680;52.400;16.920;2023-05-14T12:33:55;3.90;;;2.70;;
35576;SDS011;21680;52.400;16.920;2023-05-14T12:36:20;5.90;;;2.70;;
35576;SDS011;21680;52.400;16.920;2023-05-14T12:38:46;4.20;;;2.50;;
35576;SDS011;21680;52.400;16.920;2023-05-14T12:41:11;5.60;;;2.60;;
35576;SDS011;21680;52.400;16.920;2023-05-14T12:43:36;5.50;;;2.70;;
35576;SDS011;21680;52.400;16.920;2023-05-14T12:46:02;6.50;;;2.30;;
35576;SDS011;21680;52.400;16.920;2023-05-14T12:48:27;3.50;;;2.50;;
35576;SDS011;21680;52.400;16.920;2023-05-14T12:50:52;3.50;;;2.60;;
35576;SDS011;21680;52.400;16.920;2023-05-14T12:53:17;6.40;;;2.80;;
35576;SDS011;21680;52.400;16.920;2023-05-14T12:55:42;5.10;;;2.40;;
35576;SDS011;21680;52.400;16.920;2023-05-14T12:58:08;4.40;;;2.60;;
35576;SDS011;21680;52.400;16.920;2023-05-14T13:00:33;6.90;;;2.70;;
35576;SDS011;21680;52.400;16.920;2023-05-14T13:02:59;4.90;;;2.40;;
35576;SDS011;21680;52.400;16.920;2023-05-14T13:05:24;4.60;;;2.90;;
35576;SDS011;21680;52.400;16.920;2023-05-14T13:07:51;8.50;;;2.90;;
35576;SDS011;21680;52.400;16.920;2023-05-14T13:10:16;6.70;;;3.00;;
35576;SDS011;21680;52.400;16.920;2023-05-14T13:12:43;8.50;;;2.80;;
35576;SDS011;21680;52.400;16.920;2023-05-14T13:15:09;4.20;;;2.50;;
35576;SDS011;21680;52.400;16.920;2023-05-14T13:17:35;7.00;;;3.00;;
35576;SDS011;21680;52.400;16.920;2023-05-14T13:20:00;4.60;;;3.00;;
35576;SDS011;21680;52.400;16.920;2023-05-14T13:22:26;5.30;;;2.80;;
35576;SDS011;21680;52.400;16.920;2023-05-14T13:24:51;4.30;;;3.10;;
35576;SDS011;21680;52.400;16.920;2023-05-14T13:27:17;7.50;;;2.80;;
35576;SDS011;21680;52.400;16.920;2023-05-14T13:29:42;4.90;;;3.10;;
35576;SDS011;21680;52.400;16.920;2023-05-14T13:32:07;5.20;;;2.60;;
35576;SDS011;21680;52.400;16.920;2023-05-14T13:34:33;6.50;;;2.80;;
35576;SDS011;21680;52.400;16.920;2023-05-14T13:36:58;7.10;;;2.60;;
35576;SDS011;21680;52.400;16.920;2023-05-14T13:39:23;4.60;;;2.60;;
35576;SDS011;21680;52.400;16.920;2023-05-14T13:41:51;7.40;;;2.70;;
35576;SDS011;21680;52.400;16.920;2023-05-14T13:44:19;6.40;;;3.00;;
35576;SDS011;21680;52.400;16.920;2023-05-14T13:46:45;6.20;;;2.60;;
35576;SDS011;21680;52.400;16.920;2023-05-14T13:49:11;10.70;;;3.20;;
35576;SDS011;21680;52.400;16.920;2023-05-14T13:51:36;5.80;;;3.60;;
35576;SDS011;21680;52.400;16.920;2023-05-14T13:54:01;5.30;;;2.90;;
35576;SDS011;21680;52.400;16.920;2023-05-14T13:56:27;7.40;;;3.30;;
35576;SDS011;21680;52.400;16.920;2023-05-14T13:58:52;6.60;;;2.90;;
35576;SDS011;21680;52.400;16.920;2023-05-14T14:01:18;4.90;;;3.10;;
35576;SDS011;21680;52.400;16.920;2023-05-14T14:03:43;4.90;;;3.20;;
35576;SDS011;21680;52.400;16.920;2023-05-14T14:06:08;4.80;;;3.20;;
35576;SDS011;21680;52.400;16.920;2023-05-14T14:08:33;14.30;;;3.80;;
35576;SDS011;21680;52.400;16.920;2023-05-14T14:10:59;6.60;;;3.30;;
35576;SDS011;21680;52.400;16.920;2023-05-14T14:13:24;10.60;;;2.90;;
35576;SDS011;21680;52.400;16.920;2023-05-14T14:15:51;6.50;;;2.80;;
35576;SDS011;21680;52.400;16.920;2023-05-14T14:18:17;4.60;;;3.20;;
35576;SDS011;21680;52.400;16.920;2023-05-14T14:20:42;6.30;;;3.00;;
35576;SDS011;21680;52.400;16.920;2023-05-14T14:23:07;4.90;;;2.70;;